Time;durP1;ratioP1;P1;durP2;ratioP2;P2;SDS_P1;SDS_P2;PMS_P1;PMS_P2;Temp;Humidity;BMP_temperature;BMP_pressure;BME280_temperature;BME280_humidity;BME280_pressure;Samples;Min_cycle;Max_cycle;Signal;HPM_P1;HPM_P2
2022/09/23 00:01:27;;;;;;;;;;;;;;;26.46;41.28;94418.16;4890722;29;9142;-61
2022/09/23 00:04:08;;;;;;;;;;;;;;;26.43;40.96;94410.88;4877385;29;7239;-60
2022/09/23 00:06:44;;;;;;;;;;;;;;;26.41;41.36;94416.19;4891073;29;7535;-61
2022/09/23 00:09:12;;;;;;;;;;;;;;;26.46;41.21;94420.16;4950800;28;8614;-61
2022/09/23 00:11:40;;;;;;;;;;;;;;;26.46;41.09;94420.16;4952810;28;8444;-61
2022/09/23 00:14:17;;;;;;;;;;;;;;;26.46;40.85;94411.88;4970275;28;7414;-61
2022/09/23 00:16:43;;;;;;;;;;;;;;;26.45;41.43;94415.88;4967587;28;7654;-61
2022/09/23 00:19:10;;;;;;;;;;;;;;;26.47;40.87;94410.63;4955027;28;7545;-61
2022/09/23 00:21:36;;;;;;;;;;;;;;;26.48;41.02;94409.34;4964036;28;7249;-61
2022/09/23 00:24:06;;;;;;;;;;;;;;;26.48;40.52;94412.09;4995303;28;6970;-61
2022/09/23 00:26:36;;;;;;;;;;;;;;;26.46;41.13;94409.88;5024406;28;7258;-61
2022/09/23 00:29:08;;;;;;;;;;;;;;;26.43;40.74;94413.66;5005145;28;7327;-61
2022/09/23 00:31:35;;;;;;;;;;;;;;;26.43;40.83;94419.16;5025789;28;7543;-61
2022/09/23 00:34:01;;;;;;;;;;;;;;;26.44;40.66;94417.91;5024868;28;8856;-60
2022/09/23 00:36:32;;;;;;;;;;;;;;;26.43;40.57;94415.66;5037028;28;7218;-60
2022/09/23 00:38:58;;;;;;;;;;;;;;;26.42;40.87;94416.94;5022214;28;7856;-60
2022/09/23 00:41:27;;;;;;;;;;;;;;;26.42;41.24;94414.19;5009728;28;7267;-61
2022/09/23 00:44:00;;;;;;;;;;;;;;;26.43;40.86;94412.91;5024702;28;7849;-61
2022/09/23 00:46:36;;;;;;;;;;;;;;;26.41;40.66;94416.19;5006505;28;7139;-61
2022/09/23 00:49:28;;;;;;;;;;;;;;;26.43;40.96;94405.38;5034227;28;7326;-61
2022/09/23 00:52:10;;;;;;;;;;;;;;;26.42;40.75;94400.38;5024709;28;6905;-61
2022/09/23 00:54:43;;;;;;;;;;;;;;;26.42;40.70;94398.38;5006671;28;9076;-60
2022/09/23 00:57:19;;;;;;;;;;;;;;;26.42;40.63;94392.88;5027398;28;7215;-60
2022/09/23 00:59:45;;;;;;;;;;;;;;;26.41;40.65;94401.63;5024056;28;9851;-61
2022/09/23 01:02:19;;;;;;;;;;;;;;;26.41;40.84;94399.63;5010976;28;7146;-61
2022/09/23 01:04:55;;;;;;;;;;;;;;;26.41;41.00;94393.34;5012589;28;7351;-61
2022/09/23 01:07:29;;;;;;;;;;;;;;;26.39;40.97;94395.88;5037742;28;7409;-60
2022/09/23 01:09:58;;;;;;;;;;;;;;;26.40;41.06;94389.88;5022924;28;7942;-61
2022/09/23 01:12:36;;;;;;;;;;;;;;;26.39;40.75;94385.59;5019706;28;7209;-60
2022/09/23 01:15:24;;;;;;;;;;;;;;;26.39;41.17;94387.63;5031507;28;7387;-59
2022/09/23 01:18:27;;;;;;;;;;;;;;;26.38;40.59;94383.38;5000366;28;8603;-61
2022/09/23 01:20:55;;;;;;;;;;;;;;;26.36;40.56;94380.41;5023444;28;7232;-60
2022/09/23 01:24:01;;;;;;;;;;;;;;;26.33;40.45;94382.16;5026622;28;9064;-61
2022/09/23 01:26:45;;;;;;;;;;;;;;;26.34;40.87;94388.44;5052842;28;7353;-61
2022/09/23 01:29:28;;;;;;;;;;;;;;;26.34;41.13;94388.44;5031585;28;7594;-60
2022/09/23 01:32:22;;;;;;;;;;;;;;;26.33;40.45;94384.16;5043926;28;7584;-61
2022/09/23 01:39:03;;;;;;;;;;;;;;;26.32;41.24;94386.19;5038682;28;7466;-61
2022/09/23 01:42:16;;;;;;;;;;;;;;;26.31;40.39;94381.19;5028949;28;7220;-60
2022/09/23 01:45:06;;;;;;;;;;;;;;;26.28;40.82;94382.97;5049589;28;8754;-61
2022/09/23 01:48:00;;;;;;;;;;;;;;;26.27;41.20;94384.22;5030531;28;8303;-61
2022/09/23 01:50:56;;;;;;;;;;;;;;;26.29;40.75;94380.94;5021652;28;9564;-61
2022/09/23 01:54:12;;;;;;;;;;;;;;;26.29;40.28;94380.94;5042718;28;7728;-61
2022/09/23 01:57:03;;;;;;;;;;;;;;;26.27;40.41;94383.47;5031021;28;9436;-60
2022/09/23 01:59:46;;;;;;;;;;;;;;;26.25;41.33;94380.50;5041462;28;7261;-61
2022/09/23 02:02:59;;;;;;;;;;;;;;;26.23;41.23;94377.50;5041884;28;9090;-61
2022/09/23 02:05:47;;;;;;;;;;;;;;;26.24;41.04;94378.97;5043006;28;8958;-60
2022/09/23 02:08:20;;;;;;;;;;;;;;;26.22;41.21;94376.75;5045905;28;8338;-61
2022/09/23 02:10:55;;;;;;;;;;;;;;;26.22;40.64;94384.28;5046856;28;7505;-60
2022/09/23 02:13:28;;;;;;;;;;;;;;;26.22;40.52;94381.50;5029157;28;8868;-61
2022/09/23 02:16:11;;;;;;;;;;;;;;;26.20;40.62;94373.00;5028443;28;8230;-61
2022/09/23 02:18:49;;;;;;;;;;;;;;;26.20;41.30;94384.78;5041062;28;7518;-61
2022/09/23 02:21:23;;;;;;;;;;;;;;;26.19;40.74;94377.78;5040668;28;7429;-61
2022/09/23 02:24:02;;;;;;;;;;;;;;;26.18;41.05;94379.06;5041128;28;7555;-61
2022/09/23 02:26:38;;;;;;;;;;;;;;;26.13;40.98;94377.84;5051949;28;7692;-60
2022/09/23 02:29:48;;;;;;;;;;;;;;;26.14;40.67;94376.56;5042650;28;7535;-60
2022/09/23 02:32:29;;;;;;;;;;;;;;;26.12;41.15;94376.31;5022623;28;7194;-60
2022/09/23 02:35:47;;;;;;;;;;;;;;;26.13;40.49;94377.06;5022186;28;8355;-60
2022/09/23 02:38:26;;;;;;;;;;;;;;;26.12;41.27;94367.34;4960936;28;7227;-61
2022/09/23 02:41:33;;;;;;;;;;;;;;;26.11;40.70;94380.34;4952330;28;9034;-60
2022/09/23 02:44:09;;;;;;;;;;;;;;;26.10;40.64;94383.59;4929039;29;7464;-60
2022/09/23 02:46:37;;;;;;;;;;;;;;;26.10;40.72;94372.59;4928989;29;8872;-61
2022/09/23 02:49:28;;;;;;;;;;;;;;;26.09;40.39;94380.13;4915423;29;7120;-61
2022/09/23 02:52:06;;;;;;;;;;;;;;;26.09;40.60;94376.63;4915409;29;7382;-60
2022/09/23 02:54:44;;;;;;;;;;;;;;;26.05;40.72;94373.38;4931514;29;9014;-61
2022/09/23 02:57:25;;;;;;;;;;;;;;;26.08;40.54;94375.06;4931070;29;9439;-61
2022/09/23 02:59:53;;;;;;;;;;;;;;;26.06;41.00;94361.81;4914158;29;9388;-60
2022/09/23 03:03:05;;;;;;;;;;;;;;;26.06;40.59;94367.34;4933546;28;9153;-61
2022/09/23 03:05:44;;;;;;;;;;;;;;;26.04;40.81;94364.34;4930916;29;7462;-61
2022/09/23 03:08:56;;;;;;;;;;;;;;;26.04;41.20;94360.84;4930503;29;8930;-61
2022/09/23 03:11:25;;;;;;;;;;;;;;;26.05;40.60;94362.34;4875359;29;7641;-61
2022/09/23 03:18:17;;;;;;;;;;;;;;;26.04;41.14;94366.34;4937078;28;8621;-61
2022/09/23 03:21:07;;;;;;;;;;;;;;;26.02;40.50;94358.59;4925832;29;7284;-61
2022/09/23 03:23:39;;;;;;;;;;;;;;;25.99;40.96;94365.13;4930670;29;7234;-61
2022/09/23 03:26:11;;;;;;;;;;;;;;;25.98;40.70;94360.91;4929510;29;8514;-61
2022/09/23 03:28:44;;;;;;;;;;;;;;;25.98;40.53;94365.66;4931638;29;7220;-61
2022/09/23 03:31:19;;;;;;;;;;;;;;;25.98;40.27;94363.66;4914233;29;7140;-60
2022/09/23 03:33:53;;;;;;;;;;;;;;;25.99;40.60;94367.16;4930016;29;7253;-61
2022/09/23 03:37:02;;;;;;;;;;;;;;;25.97;40.91;94364.91;4929893;29;8912;-61
2022/09/23 03:39:51;;;;;;;;;;;;;;;25.96;40.52;94365.41;4909057;29;7379;-60
2022/09/23 03:42:40;;;;;;;;;;;;;;;25.94;40.77;94365.94;4895454;29;9634;-61
2022/09/23 03:45:26;;;;;;;;;;;;;;;25.96;41.16;94365.41;4895200;29;8293;-61
2022/09/23 03:48:16;;;;;;;;;;;;;;;25.97;40.83;94364.16;4941477;29;6874;-61
2022/09/23 03:51:19;;;;;;;;;;;;;;;25.95;40.25;94363.91;4943853;29;7261;-61
2022/09/23 03:54:11;;;;;;;;;;;;;;;25.95;40.56;94363.91;4948871;29;7566;-61
2022/09/23 03:57:04;;;;;;;;;;;;;;;25.94;40.24;94365.19;4947806;28;9413;-61
2022/09/23 03:59:39;;;;;;;;;;;;;;;25.91;40.35;94361.44;4959343;28;8938;-61
2022/09/23 04:02:06;;;;;;;;;;;;;;;25.93;40.92;94369.94;4975743;28;10466;-61
2022/09/23 04:04:39;;;;;;;;;;;;;;;25.93;40.82;94361.69;4950679;28;7237;-61
2022/09/23 04:07:08;;;;;;;;;;;;;;;25.91;40.76;94366.97;4954079;28;7350;-61
2022/09/23 04:09:36;;;;;;;;;;;;;;;25.92;40.33;94365.72;4964135;28;7412;-60
2022/09/23 04:12:13;;;;;;;;;;;;;;;25.91;40.81;94366.97;4963256;28;7249;-60
2022/09/23 04:14:44;;;;;;;;;;;;;;;25.90;40.36;94368.22;4975637;28;7622;-61
2022/09/23 04:17:17;;;;;;;;;;;;;;;25.90;40.75;94368.22;5029420;28;8923;-61
2022/09/23 04:19:45;;;;;;;;;;;;;;;25.86;40.82;94370.50;5025439;28;7218;-61
2022/09/23 04:22:11;;;;;;;;;;;;;;;25.88;41.06;94358.97;5032397;28;7087;-60
2022/09/23 04:24:39;;;;;;;;;;;;;;;25.86;41.11;94361.50;5041985;28;6959;-61
2022/09/23 04:27:07;;;;;;;;;;;;;;;25.87;40.73;94363.75;5043512;28;7534;-61
2022/09/23 04:29:40;;;;;;;;;;;;;;;25.87;40.42;94363.75;5043973;28;7696;-60
2022/09/23 04:32:06;;;;;;;;;;;;;;;25.86;40.17;94361.50;5049519;28;7050;-60
2022/09/23 04:34:33;;;;;;;;;;;;;;;25.84;40.76;94361.25;5053122;28;7182;-61
2022/09/23 04:37:14;;;;;;;;;;;;;;;25.80;40.83;94361.53;5047171;28;7601;-61
2022/09/23 04:39:42;;;;;;;;;;;;;;;25.82;40.87;94361.78;5074184;28;7542;-61
2022/09/23 04:42:41;;;;;;;;;;;;;;;25.82;40.13;94364.53;5076329;28;7255;-60
2022/09/23 04:45:09;;;;;;;;;;;;;;;25.83;40.60;94360.53;4968283;28;7000;-61
2022/09/23 04:47:36;;;;;;;;;;;;;;;25.82;40.88;94358.25;4971598;28;7223;-60
2022/09/23 04:50:18;;;;;;;;;;;;;;;25.80;40.26;94366.28;4967518;28;9205;-60
2022/09/23 04:52:54;;;;;;;;;;;;;;;25.79;40.39;94356.56;4957053;28;7154;-60
2022/09/23 04:55:24;;;;;;;;;;;;;;;25.78;40.86;94361.31;4964652;28;7175;-61
2022/09/23 04:57:52;;;;;;;;;;;;;;;25.74;40.25;94355.31;4987459;28;9179;-61
2022/09/23 05:00:22;;;;;;;;;;;;;;;25.78;40.58;94366.81;4962059;28;7258;-61
2022/09/23 05:02:50;;;;;;;;;;;;;;;25.77;40.27;94359.81;4974111;28;7545;-61
2022/09/23 05:05:19;;;;;;;;;;;;;;;25.77;39.72;94359.81;4961660;28;7017;-60
2022/09/23 05:07:48;;;;;;;;;;;;;;;25.74;39.91;94360.09;4985977;28;9424;-60
2022/09/23 05:10:34;;;;;;;;;;;;;;;25.74;40.22;94355.31;4971248;28;8809;-61
2022/09/23 05:13:00;;;;;;;;;;;;;;;25.78;39.91;94363.31;4965964;28;7474;-60
2022/09/23 05:15:26;;;;;;;;;;;;;;;25.77;40.33;94365.34;4969094;28;7364;-61
2022/09/23 05:17:56;;;;;;;;;;;;;;;25.79;39.81;94365.56;4974221;28;9379;-61
2022/09/23 05:20:25;;;;;;;;;;;;;;;25.77;40.10;94370.84;5011480;28;7056;-61
2022/09/23 05:22:54;;;;;;;;;;;;;;;25.76;40.20;94358.31;5062874;28;9109;-61
2022/09/23 05:25:24;;;;;;;;;;;;;;;25.73;39.54;94362.09;5044659;28;7666;-60
2022/09/23 05:27:52;;;;;;;;;;;;;;;25.74;40.23;94366.34;5033604;28;7244;-61
2022/09/23 05:30:20;;;;;;;;;;;;;;;25.72;39.67;94362.59;5049348;28;6863;-61
2022/09/23 05:33:13;;;;;;;;;;;;;;;25.73;40.11;94367.59;5045809;28;7028;-61
2022/09/23 05:35:46;;;;;;;;;;;;;;;25.73;39.40;94375.84;4994093;28;7303;-61
2022/09/23 05:38:22;;;;;;;;;;;;;;;25.74;39.78;94380.13;4985922;28;8562;-61
2022/09/23 05:41:02;;;;;;;;;;;;;;;25.75;40.11;94378.13;4998614;28;9071;-61
2022/09/23 05:43:38;;;;;;;;;;;;;;;25.72;40.13;94381.88;4990890;28;7225;-60
2022/09/23 05:46:20;;;;;;;;;;;;;;;25.70;40.04;94381.66;4997267;28;7360;-61
2022/09/23 05:48:50;;;;;;;;;;;;;;;25.70;39.51;94381.66;4999580;28;7230;-61
2022/09/23 05:51:21;;;;;;;;;;;;;;;25.69;39.63;94391.91;4998728;28;7407;-61
2022/09/23 05:54:01;;;;;;;;;;;;;;;25.68;39.27;94389.69;5000425;28;7386;-61
2022/09/23 05:56:31;;;;;;;;;;;;;;;25.68;40.00;94398.69;4997270;28;9312;-61
2022/09/23 05:59:11;;;;;;;;;;;;;;;25.67;39.72;94397.19;4990312;28;7193;-61
2022/09/23 06:01:49;;;;;;;;;;;;;;;25.66;39.27;94394.97;4985905;28;8878;-61
2022/09/23 06:04:15;;;;;;;;;;;;;;;25.67;39.62;94399.19;5004314;28;6999;-61
2022/09/23 06:06:46;;;;;;;;;;;;;;;25.64;40.04;94394.72;4986965;28;7717;-61
2022/09/23 06:09:14;;;;;;;;;;;;;;;25.66;39.66;94401.22;4996567;28;7272;-61
2022/09/23 06:11:42;;;;;;;;;;;;;;;25.66;39.94;94394.97;4995495;28;9016;-61
2022/09/23 06:14:12;;;;;;;;;;;;;;;25.66;39.74;94401.22;5071704;28;7239;-61
2022/09/23 06:16:47;;;;;;;;;;;;;;;25.66;39.97;94394.97;5040777;28;7281;-61
2022/09/23 06:19:19;;;;;;;;;;;;;;;25.64;40.27;94395.47;5050783;28;7030;-61
2022/09/23 06:21:48;;;;;;;;;;;;;;;25.67;40.64;94404.69;5048484;28;8869;-61
2022/09/23 06:24:14;;;;;;;;;;;;;;;25.64;39.85;94403.00;5032400;28;7261;-61
2022/09/23 06:26:40;;;;;;;;;;;;;;;25.61;40.37;94402.00;5044068;28;7253;-61
2022/09/23 06:29:11;;;;;;;;;;;;;;;25.61;40.11;94401.25;5034237;28;7264;-61
2022/09/23 06:31:52;;;;;;;;;;;;;;;25.59;40.28;94399.00;5028127;28;7076;-61
2022/09/23 06:34:32;;;;;;;;;;;;;;;25.56;40.69;94405.53;5040808;28;10327;-61
2022/09/23 06:37:07;;;;;;;;;;;;;;;25.54;40.32;94394.28;5035719;28;7020;-61
2022/09/23 06:39:39;;;;;;;;;;;;;;;25.57;40.23;94407.03;5033836;28;9212;-60
2022/09/23 06:42:15;;;;;;;;;;;;;;;25.59;40.12;94403.75;5032140;28;8499;-61
2022/09/23 06:44:58;;;;;;;;;;;;;;;25.60;40.40;94405.28;5023161;28;9807;-61
2022/09/23 06:47:28;;;;;;;;;;;;;;;25.62;40.58;94403.47;5044561;28;7302;-60
2022/09/23 06:49:56;;;;;;;;;;;;;;;25.61;40.75;94401.25;5029554;28;7541;-61
2022/09/23 06:52:22;;;;;;;;;;;;;;;25.61;40.93;94407.50;5032249;28;7291;-61
2022/09/23 06:54:48;;;;;;;;;;;;;;;25.60;40.78;94405.28;5022026;28;7393;-61
2022/09/23 06:57:16;;;;;;;;;;;;;;;25.58;40.84;94403.00;5037925;28;7044;-60
2022/09/23 06:59:48;;;;;;;;;;;;;;;25.58;40.69;94414.03;5036440;28;7242;-61
2022/09/23 07:02:16;;;;;;;;;;;;;;;25.60;40.46;94411.50;5039741;28;7068;-61
2022/09/23 07:04:42;;;;;;;;;;;;;;;25.63;40.63;94409.75;5035839;28;9434;-61
2022/09/23 07:07:12;;;;;;;;;;;;;;;25.63;39.86;94418.75;5019109;28;7056;-61
2022/09/23 07:09:39;;;;;;;;;;;;;;;25.63;40.48;94413.25;5019962;28;8954;-61
2022/09/23 07:12:07;;;;;;;;;;;;;;;25.63;40.61;94416.00;5010382;28;9131;-60
2022/09/23 07:14:35;;;;;;;;;;;;;;;25.62;40.15;94417.25;5025716;28;7155;-61
2022/09/23 07:17:15;;;;;;;;;;;;;;;25.62;40.89;94420.00;5030855;28;7253;-61
2022/09/23 07:19:43;;;;;;;;;;;;;;;25.64;40.90;94417.50;5052242;28;7155;-61
2022/09/23 07:22:09;;;;;;;;;;;;;;;25.65;40.12;94413.47;5017503;28;9256;-61
2022/09/23 07:24:36;;;;;;;;;;;;;;;25.68;39.94;94406.22;5057464;28;7195;-61
2022/09/23 07:27:04;;;;;;;;;;;;;;;25.68;40.16;94414.47;5045467;28;6992;-61
2022/09/23 07:29:50;;;;;;;;;;;;;;;25.69;41.04;94413.97;5047179;28;10058;-61
2022/09/23 07:32:20;;;;;;;;;;;;;;;25.65;40.88;94413.47;5039609;28;6911;-61
2022/09/23 07:34:55;;;;;;;;;;;;;;;25.64;40.51;94412.00;5041876;28;7338;-61
2022/09/23 07:37:23;;;;;;;;;;;;;;;25.66;40.71;94417.75;5048879;28;7222;-61
2022/09/23 07:39:51;;;;;;;;;;;;;;;25.66;40.03;94414.25;5049976;28;7605;-61
2022/09/23 07:42:30;;;;;;;;;;;;;;;25.67;40.20;94430.25;5053055;28;6988;-61
2022/09/23 07:45:02;;;;;;;;;;;;;;;25.67;41.04;94415.72;5046530;28;7343;-62
2022/09/23 07:47:33;;;;;;;;;;;;;;;25.69;40.72;94421.47;5056917;28;7353;-61
2022/09/23 07:50:11;;;;;;;;;;;;;;;25.67;40.28;94421.22;5049494;28;7227;-61
2022/09/23 07:52:43;;;;;;;;;;;;;;;25.68;40.39;94420.75;5059385;28;7095;-61
2022/09/23 07:55:20;;;;;;;;;;;;;;;25.67;40.89;94416.47;5043863;28;7190;-61
2022/09/23 07:57:46;;;;;;;;;;;;;;;25.67;41.04;94415.72;5043039;28;7187;-61
2022/09/23 08:00:14;;;;;;;;;;;;;;;25.68;40.65;94419.97;5042798;28;7547;-61
2022/09/23 08:02:59;;;;;;;;;;;;;;;25.69;40.40;94419.47;5047391;28;7465;-61
2022/09/23 08:05:32;;;;;;;;;;;;;;;25.70;41.22;94415.47;5077041;28;7439;-61
2022/09/23 08:08:17;;;;;;;;;;;;;;;25.68;40.25;94419.97;5044233;28;7322;-61
2022/09/23 08:11:17;;;;;;;;;;;;;;;25.65;41.00;94418.25;5046045;28;9606;-61
2022/09/23 08:13:58;;;;;;;;;;;;;;;25.69;40.75;94427.72;4993053;28;7189;-61
2022/09/23 08:16:40;;;;;;;;;;;;;;;25.67;41.16;94421.97;4991287;28;7142;-61
2022/09/23 08:19:08;;;;;;;;;;;;;;;25.68;40.53;94423.50;4985975;28;7305;-61
2022/09/23 08:21:34;;;;;;;;;;;;;;;25.69;40.66;94421.47;4993621;28;7877;-61
2022/09/23 08:24:00;;;;;;;;;;;;;;;25.68;40.83;94429.00;4997570;28;9432;-61
2022/09/23 08:26:30;;;;;;;;;;;;;;;25.69;40.67;94422.22;4987359;28;7145;-61
2022/09/23 08:29:08;;;;;;;;;;;;;;;25.68;40.79;94423.50;5004419;28;8390;-61
2022/09/23 08:31:53;;;;;;;;;;;;;;;25.66;40.33;94426.00;4992737;28;7159;-61
2022/09/23 08:34:27;;;;;;;;;;;;;;;25.67;40.74;94421.22;4992862;28;7219;-61
2022/09/23 08:36:55;;;;;;;;;;;;;;;25.66;40.89;94420.50;4989999;28;9657;-61
2022/09/23 08:39:55;;;;;;;;;;;;;;;25.63;40.65;94421.50;4986241;28;7061;-61
2022/09/23 08:42:31;;;;;;;;;;;;;;;25.62;41.13;94425.50;4933888;29;8503;-61
2022/09/23 08:45:03;;;;;;;;;;;;;;;25.64;41.60;94417.50;4917672;29;9490;-61
2022/09/23 08:47:55;;;;;;;;;;;;;;;25.66;40.49;94425.25;4915838;29;9122;-61
2022/09/23 08:50:23;;;;;;;;;;;;;;;25.65;40.60;94413.47;4967727;28;6987;-61
2022/09/23 08:53:31;;;;;;;;;;;;;;;25.69;41.13;94424.97;4986734;28;6980;-61
2022/09/23 08:56:13;;;;;;;;;;;;;;;25.66;41.08;94417.75;4967198;28;7124;-61
2022/09/23 08:58:45;;;;;;;;;;;;;;;25.67;40.71;94421.97;4987874;28;7206;-61
2022/09/23 09:01:28;;;;;;;;;;;;;;;25.65;41.13;94412.72;4968939;28;7001;-61
2022/09/23 09:04:13;;;;;;;;;;;;;;;25.65;41.37;94407.97;4954890;28;7277;-61
2022/09/23 09:07:20;;;;;;;;;;;;;;;25.66;40.75;94409.50;4986217;28;7210;-61
2022/09/23 09:10:06;;;;;;;;;;;;;;;25.68;41.11;94419.97;4990710;28;8425;-60
2022/09/23 09:12:39;;;;;;;;;;;;;;;25.65;41.09;94405.22;4972712;28;7138;-61
2022/09/23 09:15:30;;;;;;;;;;;;;;;25.65;41.21;94412.72;4986550;28;7060;-60
2022/09/23 09:18:20;;;;;;;;;;;;;;;25.65;41.60;94401.72;4985264;28;8719;-61
2022/09/23 09:21:08;;;;;;;;;;;;;;;25.64;41.31;94400.22;4972218;28;7376;-61
2022/09/23 09:23:37;;;;;;;;;;;;;;;25.63;40.85;94404.22;4981806;28;7249;-61
2022/09/23 09:26:05;;;;;;;;;;;;;;;25.63;41.63;94398.72;4972484;28;7014;-61
2022/09/23 09:28:47;;;;;;;;;;;;;;;25.63;41.78;94398.72;4976960;28;6990;-61
2022/09/23 09:31:33;;;;;;;;;;;;;;;25.61;41.81;94402.00;4969128;28;9639;-61
2022/09/23 09:34:19;;;;;;;;;;;;;;;25.63;41.41;94401.47;4980524;28;7684;-60
2022/09/23 09:37:12;;;;;;;;;;;;;;;25.64;40.96;94397.47;4964301;28;7123;-61
2022/09/23 09:39:47;;;;;;;;;;;;;;;25.66;41.40;94398.47;4977738;28;9569;-60
2022/09/23 09:42:26;;;;;;;;;;;;;;;25.68;41.53;94390.44;4981490;28;7298;-61
2022/09/23 09:45:01;;;;;;;;;;;;;;;25.66;41.72;94379.19;4983576;28;7230;-61
2022/09/23 09:47:45;;;;;;;;;;;;;;;25.67;40.78;94379.91;4986414;28;7834;-61
2022/09/23 09:50:48;;;;;;;;;;;;;;;25.68;41.02;94382.19;5030862;28;7251;-60
2022/09/23 09:53:34;;;;;;;;;;;;;;;25.71;41.11;94372.88;5044610;28;9402;-60
2022/09/23 09:56:10;;;;;;;;;;;;;;;25.68;41.39;94373.91;5049291;28;7043;-61
2022/09/23 09:58:53;;;;;;;;;;;;;;;25.69;41.43;94380.91;5049663;28;7261;-60
2022/09/23 10:01:33;;;;;;;;;;;;;;;25.66;41.62;94376.44;5072373;28;7035;-60
2022/09/23 10:04:34;;;;;;;;;;;;;;;25.65;41.46;94380.44;5041251;28;7078;-61
2022/09/23 10:07:26;;;;;;;;;;;;;;;25.63;41.54;94374.69;5045664;28;7000;-61
2022/09/23 10:10:22;;;;;;;;;;;;;;;25.65;42.03;94372.16;5045100;28;7237;-61
2022/09/23 10:12:53;;;;;;;;;;;;;;;25.66;41.62;94372.91;5045262;28;7215;-61
2022/09/23 10:15:27;;;;;;;;;;;;;;;25.64;41.80;94367.94;5050551;28;7153;-60
2022/09/23 10:18:00;;;;;;;;;;;;;;;25.65;41.37;94363.91;5074082;28;7236;-61
2022/09/23 10:20:37;;;;;;;;;;;;;;;25.65;41.58;94365.91;5072769;28;7255;-60
2022/09/23 10:23:20;;;;;;;;;;;;;;;25.62;41.80;94353.91;5039526;28;7786;-61
2022/09/23 10:25:59;;;;;;;;;;;;;;;25.67;41.50;94366.13;5061599;28;7349;-61
2022/09/23 10:28:40;;;;;;;;;;;;;;;25.67;41.52;94357.88;5043866;28;7068;-61
2022/09/23 10:31:10;;;;;;;;;;;;;;;25.69;41.61;94361.63;5040890;28;9056;-60
2022/09/23 10:33:58;;;;;;;;;;;;;;;25.73;41.59;94359.34;5041409;28;8029;-61
2022/09/23 10:36:31;;;;;;;;;;;;;;;25.73;41.81;94350.34;5059985;28;7117;-61
2022/09/23 10:48:39;;;;;;;;;;;;;;;25.77;41.03;94343.28;5038979;28;9033;-61
2022/09/23 10:51:41;;;;;;;;;;;;;;;25.80;41.83;94345.00;5043624;28;7199;-61
2022/09/23 10:54:12;;;;;;;;;;;;;;;25.82;41.37;94350.00;5045766;28;7291;-61
2022/09/23 11:00:21;;;;;;;;;;;;;;;25.80;42.23;94345.00;5028622;28;7377;-61
2022/09/23 11:03:16;;;;;;;;;;;;;;;25.82;41.67;94345.25;5013693;28;9171;-61
2022/09/23 11:06:04;;;;;;;;;;;;;;;25.83;41.81;94341.25;5029147;28;7289;-61
2022/09/23 11:09:01;;;;;;;;;;;;;;;25.82;41.69;94344.47;5028912;28;9642;-61
2022/09/23 11:11:46;;;;;;;;;;;;;;;25.81;41.10;94338.25;4953044;28;7525;-60
2022/09/23 11:14:24;;;;;;;;;;;;;;;25.83;41.17;94341.25;4969031;28;6994;-61
2022/09/23 11:17:29;;;;;;;;;;;;;;;25.86;40.93;94334.69;4954617;28;7240;-61
2022/09/23 11:20:01;;;;;;;;;;;;;;;25.87;41.23;94341.69;4969308;28;7067;-61
2022/09/23 11:22:47;;;;;;;;;;;;;;;25.87;41.92;94338.94;4947187;28;7331;-61
2022/09/23 11:25:50;;;;;;;;;;;;;;;25.89;42.02;94332.91;4964188;28;8716;-61
2022/09/23 11:28:30;;;;;;;;;;;;;;;25.86;41.43;94331.94;4949141;28;7221;-61
2022/09/23 11:31:19;;;;;;;;;;;;;;;25.83;41.53;94327.47;4965682;28;7103;-61
2022/09/23 11:34:00;;;;;;;;;;;;;;;25.83;42.05;94330.22;4965311;28;7254;-61
2022/09/23 11:36:51;;;;;;;;;;;;;;;25.86;41.72;94320.19;4977571;28;7410;-61
2022/09/23 11:39:32;;;;;;;;;;;;;;;25.85;41.65;94324.94;4995530;28;7061;-61
2022/09/23 11:42:45;;;;;;;;;;;;;;;25.84;41.13;94320.66;4987541;28;8532;-60
2022/09/23 11:45:25;;;;;;;;;;;;;;;25.86;41.43;94315.41;4926513;29;7463;-60
2022/09/23 11:48:00;;;;;;;;;;;;;;;25.87;42.13;94318.91;4943519;28;7701;-61
2022/09/23 11:50:35;;;;;;;;;;;;;;;25.85;41.27;94313.91;4966261;28;7210;-60
2022/09/23 11:53:44;;;;;;;;;;;;;;;25.85;41.22;94313.91;4975034;28;7507;-60
2022/09/23 11:56:43;;;;;;;;;;;;;;;25.85;42.27;94304.91;4969923;28;8950;-60
2022/09/23 11:59:30;;;;;;;;;;;;;;;25.85;42.21;94305.66;4964988;28;7350;-61
2022/09/23 12:02:19;;;;;;;;;;;;;;;25.86;42.31;94301.63;4975036;28;8557;-61
2022/09/23 12:05:01;;;;;;;;;;;;;;;25.87;41.57;94305.88;4984417;28;7932;-60
2022/09/23 12:07:56;;;;;;;;;;;;;;;25.89;41.77;94291.56;4963340;28;7198;-61
2022/09/23 12:10:51;;;;;;;;;;;;;;;25.88;41.79;94287.34;4978914;28;6966;-61
2022/09/23 12:13:38;;;;;;;;;;;;;;;25.92;42.07;94285.03;4961939;28;7111;-61
2022/09/23 12:16:44;;;;;;;;;;;;;;;25.92;41.68;94280.28;4964193;28;9746;-61
2022/09/23 12:19:21;;;;;;;;;;;;;;;25.95;41.29;94281.25;4961593;28;7297;-61
2022/09/23 12:22:06;;;;;;;;;;;;;;;25.98;41.24;94286.50;5033846;28;7253;-61
2022/09/23 12:24:47;;;;;;;;;;;;;;;26.00;41.28;94275.69;5038728;28;7184;-60
2022/09/23 12:27:44;;;;;;;;;;;;;;;26.00;41.39;94283.22;5041024;28;7261;-61
2022/09/23 12:30:30;;;;;;;;;;;;;;;25.99;41.95;94273.47;5024062;28;7222;-61
2022/09/23 12:33:16;;;;;;;;;;;;;;;26.02;42.41;94272.41;5029886;28;7013;-61
2022/09/23 12:35:45;;;;;;;;;;;;;;;26.01;41.60;94276.44;5025218;28;7104;-61
2022/09/23 12:38:30;;;;;;;;;;;;;;;26.00;41.45;94266.66;5031154;28;7426;-61
2022/09/23 12:41:00;;;;;;;;;;;;;;;26.02;41.77;94253.13;5056794;28;7323;-61
2022/09/23 12:43:32;;;;;;;;;;;;;;;26.01;41.79;94266.16;5029368;28;6904;-60
2022/09/23 12:46:26;;;;;;;;;;;;;;;26.03;41.98;94260.88;5028348;28;6973;-61
2022/09/23 12:49:01;;;;;;;;;;;;;;;26.05;41.81;94261.13;5044578;28;9071;-61
2022/09/23 12:51:36;;;;;;;;;;;;;;;26.07;41.85;94260.59;5048603;28;8469;-61
2022/09/23 12:54:26;;;;;;;;;;;;;;;26.09;42.05;94258.84;5028328;28;7010;-61
2022/09/23 12:57:02;;;;;;;;;;;;;;;26.11;42.00;94253.56;5043531;28;7155;-61
2022/09/23 12:59:52;;;;;;;;;;;;;;;26.15;42.25;94250.50;5035760;28;8701;-61
2022/09/23 13:02:34;;;;;;;;;;;;;;;26.19;41.83;94245.44;5043500;28;7267;-61
2022/09/23 13:08:01;;;;;;;;;;;;;;;26.20;41.84;94246.19;5042221;28;7325;-61
2022/09/23 13:10:45;;;;;;;;;;;;;;;26.20;42.14;94230.41;5032489;28;7220;-60
2022/09/23 13:13:25;;;;;;;;;;;;;;;26.22;42.45;94233.38;5033116;28;9087;-61
2022/09/23 13:15:53;;;;;;;;;;;;;;;26.26;42.35;94235.84;5041260;28;9226;-61
2022/09/23 13:18:20;;;;;;;;;;;;;;;26.28;42.84;94230.56;5039725;28;7305;-61
2022/09/23 13:20:51;;;;;;;;;;;;;;;26.29;42.23;94221.03;5029618;28;7353;-61
2022/09/23 13:23:26;;;;;;;;;;;;;;;26.31;42.65;94218.50;5041627;28;7258;-61
2022/09/23 13:26:01;;;;;;;;;;;;;;;26.32;42.73;94220.00;5042856;28;8540;-61
2022/09/23 13:28:36;;;;;;;;;;;;;;;26.35;42.23;94219.69;5057754;28;7598;-61
2022/09/23 13:31:14;;;;;;;;;;;;;;;26.38;42.67;94220.69;5058955;28;7214;-61
2022/09/23 13:34:09;;;;;;;;;;;;;;;26.39;42.21;94220.16;5046969;28;9437;-61
2022/09/23 13:36:46;;;;;;;;;;;;;;;26.42;42.55;94213.59;5074578;28;7856;-61
2022/09/23 13:39:38;;;;;;;;;;;;;;;26.45;42.39;94214.56;5050164;28;7297;-61
2022/09/23 13:42:19;;;;;;;;;;;;;;;26.47;42.62;94214.81;4984238;28;7433;-61
2022/09/23 13:44:59;;;;;;;;;;;;;;;26.48;42.38;94208.00;4982896;28;6992;-61
2022/09/23 13:47:30;;;;;;;;;;;;;;;26.50;42.36;94202.72;4987335;28;7283;-61
2022/09/23 13:50:17;;;;;;;;;;;;;;;26.53;43.01;94204.44;4999357;28;7024;-61
2022/09/23 13:52:46;;;;;;;;;;;;;;;26.53;42.75;94213.47;4983748;28;7404;-61
2022/09/23 13:55:36;;;;;;;;;;;;;;;26.53;42.94;94207.19;4991592;28;7060;-61
2022/09/23 13:58:13;;;;;;;;;;;;;;;26.55;42.25;94196.38;4991149;28;7248;-61
2022/09/23 14:00:50;;;;;;;;;;;;;;;26.54;42.30;94192.88;4998950;28;7875;-61
2022/09/23 14:03:30;;;;;;;;;;;;;;;26.59;42.96;94194.06;4982916;28;8962;-61
2022/09/23 14:05:59;;;;;;;;;;;;;;;26.60;42.51;94190.06;4997048;28;8923;-60
2022/09/23 14:08:28;;;;;;;;;;;;;;;26.60;42.60;94187.31;4978956;28;7030;-60
2022/09/23 14:11:14;;;;;;;;;;;;;;;26.64;42.32;94182.94;4983397;28;7246;-60
2022/09/23 14:13:53;;;;;;;;;;;;;;;26.65;42.03;94184.44;4989386;28;7229;-61
2022/09/23 14:16:52;;;;;;;;;;;;;;;26.65;41.71;94186.47;4991705;28;9028;-61
2022/09/23 14:19:49;;;;;;;;;;;;;;;26.66;41.11;94179.69;4965266;28;7210;-61
2022/09/23 14:22:26;;;;;;;;;;;;;;;26.66;41.27;94176.94;4926443;29;7349;-60
2022/09/23 14:24:55;;;;;;;;;;;;;;;26.67;41.21;94178.41;4930035;28;9007;-61